KREO/REO METAR and TAF weather

Enter ICAO airport designator
Station Type Date Time Source
KREO METAR 2021/01/16 02:52 UTC NOAA

KREO 160252Z AUTO 21004KT 01/M01 A3034 RMK AO1 SLP304 T00061006 50001


Station Type Date Time Source
KREO Decoded METAR 2021/01/16 02:52 UTC NOAA

ROME, OR, United States (KREO) 42-35N 117-52W 1235M
Jan 15, 2021 - 09:52 PM EST / 2021.01.16 0252 UTC
Wind: from the SSW (210 degrees) at 5 MPH (4 KT):0
Temperature: 33.1 F (0.6 C)
Windchill: 28 F (-2 C):1
Dew Point: 30.9 F (-0.6 C)
Relative Humidity: 91%
Pressure (altimeter): 30.34 in. Hg (1027 hPa)
Pressure tendency: 0.00 inches (0.1 hPa) higher than three hours ago
ob: KREO 160252Z AUTO 21004KT 01/M01 A3034 RMK AO1 SLP304 T00061006 50001
cycle: 3

Station Type Date Time Source
KREO TAF UTC NOAA

Error!

Example: see airport list